createdAt,value
2023-03-07T00:02:34.063Z,1.50
2023-03-07T00:05:10.147Z,1.50
2023-03-07T00:07:47.070Z,1.60
2023-03-07T00:10:24.220Z,1.50
2023-03-07T00:12:59.542Z,1.50
2023-03-07T00:15:35.719Z,1.60
2023-03-07T00:18:15.736Z,1.60
2023-03-07T00:20:49.657Z,1.60
2023-03-07T00:23:25.792Z,1.60
2023-03-07T00:26:03.404Z,1.60
2023-03-07T00:28:39.454Z,1.70
2023-03-07T00:31:15.785Z,1.60
2023-03-07T00:33:57.115Z,1.60
2023-03-07T00:36:36.640Z,1.60
2023-03-07T00:39:10.537Z,1.60
2023-03-07T00:41:45.567Z,1.60
2023-03-07T00:44:21.131Z,1.60
2023-03-07T00:46:56.318Z,1.60
2023-03-07T00:49:35.546Z,1.60
2023-03-07T00:52:12.218Z,1.60
2023-03-07T00:54:47.456Z,1.60
2023-03-07T00:57:23.264Z,1.50
2023-03-07T00:59:59.433Z,1.50
2023-03-07T01:02:35.356Z,1.50
2023-03-07T01:05:17.410Z,1.60
2023-03-07T01:07:52.420Z,1.60
2023-03-07T01:10:29.715Z,1.60
2023-03-07T01:13:05.725Z,1.50
2023-03-07T01:15:39.949Z,1.50
2023-03-07T01:18:14.944Z,1.50
2023-03-07T01:20:55.630Z,1.50
2023-03-07T01:23:31.777Z,1.50
2023-03-07T01:26:07.044Z,1.50
2023-03-07T01:28:44.171Z,1.50
2023-03-07T01:31:19.890Z,1.50
2023-03-07T01:33:56.205Z,1.50
2023-03-07T01:36:37.372Z,1.40
2023-03-07T01:39:17.554Z,1.40
2023-03-07T01:42:21.923Z,1.40
2023-03-07T01:45:05.406Z,1.40
2023-03-07T01:48:05.986Z,1.40
2023-03-07T01:50:43.842Z,1.40
2023-03-07T01:53:24.034Z,1.40
2023-03-07T01:56:01.746Z,1.50
2023-03-07T01:58:37.532Z,1.40
2023-03-07T02:01:14.103Z,1.40
2023-03-07T02:03:52.786Z,1.40
2023-03-07T02:06:27.938Z,1.30
2023-03-07T02:09:05.510Z,1.30
2023-03-07T02:11:41.099Z,1.40
2023-03-07T02:14:18.410Z,1.30
2023-03-07T02:16:49.475Z,1.30
2023-03-07T02:19:34.287Z,1.30
2023-03-07T02:22:12.557Z,1.20
2023-03-07T02:24:52.264Z,1.30
2023-03-07T02:27:31.444Z,1.20
2023-03-07T02:30:13.926Z,1.30
2023-03-07T02:32:49.650Z,1.20
2023-03-07T02:35:27.699Z,1.20
2023-03-07T02:38:06.695Z,1.20
2023-03-07T02:40:42.114Z,1.20
2023-03-07T02:43:22.981Z,1.20
2023-03-07T02:45:58.994Z,1.20
2023-03-07T02:48:35.797Z,1.20
2023-03-07T02:51:12.342Z,1.20
2023-03-07T02:53:53.564Z,1.20
2023-03-07T02:56:28.479Z,1.20
2023-03-07T02:59:07.941Z,1.10
2023-03-07T03:01:43.600Z,1.10
2023-03-07T03:04:20.335Z,1.10
2023-03-07T03:06:55.427Z,1.00
2023-03-07T03:09:33.837Z,1.00
2023-03-07T03:12:12.604Z,1.00
2023-03-07T03:14:47.738Z,1.00
2023-03-07T03:17:28.170Z,0.90
2023-03-07T03:20:05.738Z,0.90
2023-03-07T03:22:40.712Z,0.90
2023-03-07T03:25:19.001Z,0.80
2023-03-07T03:27:54.266Z,0.70
2023-03-07T03:30:32.576Z,0.70
2023-03-07T03:33:14.118Z,0.70
2023-03-07T03:35:48.829Z,0.70
2023-03-07T03:38:25.256Z,0.60
2023-03-07T03:41:01.174Z,0.60
2023-03-07T03:43:38.199Z,0.60
2023-03-07T03:46:15.327Z,0.50
2023-03-07T03:48:58.128Z,0.50
2023-03-07T03:51:36.182Z,0.50
2023-03-07T03:54:13.138Z,0.40
2023-03-07T03:56:47.672Z,0.40
2023-03-07T03:59:23.056Z,0.40
2023-03-07T04:01:59.595Z,0.40
2023-03-07T04:04:38.853Z,0.40
2023-03-07T04:07:18.411Z,0.30
2023-03-07T04:09:55.972Z,0.40
2023-03-07T04:12:32.393Z,0.40
2023-03-07T04:15:09.620Z,0.40
2023-03-07T04:17:47.685Z,0.40
2023-03-07T04:20:26.081Z,0.40
2023-03-07T04:23:03.761Z,0.40
2023-03-07T04:25:41.207Z,0.40
2023-03-07T04:28:15.540Z,0.40
2023-03-07T04:30:52.732Z,0.40
2023-03-07T04:33:30.612Z,0.40
2023-03-07T04:36:05.139Z,0.40
2023-03-07T04:38:43.246Z,0.40
2023-03-07T04:41:20.518Z,0.40
2023-03-07T04:44:00.712Z,0.40
2023-03-07T04:46:36.578Z,0.40
2023-03-07T04:49:14.090Z,0.30
2023-03-07T04:51:48.842Z,0.30
2023-03-07T04:54:28.326Z,0.30
2023-03-07T04:57:04.404Z,0.30
2023-03-07T04:59:40.414Z,0.30
2023-03-07T05:02:18.697Z,0.30
2023-03-07T05:04:54.330Z,0.30
2023-03-07T05:07:31.206Z,0.30
2023-03-07T05:10:14.474Z,0.30
2023-03-07T05:12:48.670Z,0.30
2023-03-07T05:15:23.494Z,0.40
2023-03-07T05:17:58.823Z,0.30
2023-03-07T05:20:36.474Z,0.40
2023-03-07T05:23:11.728Z,0.40
2023-03-07T05:25:53.127Z,0.40
2023-03-07T05:28:30.442Z,0.40
2023-03-07T05:31:11.174Z,0.50
2023-03-07T05:33:45.574Z,0.40
2023-03-07T05:36:27.133Z,0.40
2023-03-07T05:42:27.829Z,0.50
2023-03-07T05:45:03.190Z,0.50
2023-03-07T05:47:39.181Z,0.50
2023-03-07T05:50:19.323Z,0.50
2023-03-07T05:52:55.784Z,0.50
2023-03-07T05:55:34.703Z,0.60
2023-03-07T05:58:15.264Z,0.60
2023-03-07T06:00:55.378Z,0.60
2023-03-07T06:03:36.265Z,0.60
2023-03-07T06:06:12.443Z,0.70
2023-03-07T06:08:51.091Z,0.90
2023-03-07T06:11:26.244Z,1.00
2023-03-07T06:14:05.104Z,1.00
2023-03-07T06:16:40.433Z,1.10
2023-03-07T06:19:16.125Z,1.20
2023-03-07T06:21:51.031Z,1.20
2023-03-07T06:24:29.853Z,1.20
2023-03-07T06:27:04.636Z,1.20
2023-03-07T06:29:48.418Z,1.20
2023-03-07T06:32:25.080Z,1.20
2023-03-07T06:35:03.356Z,1.20
2023-03-07T06:37:39.483Z,1.30
2023-03-07T06:40:15.865Z,1.30
2023-03-07T06:42:53.754Z,1.30
2023-03-07T06:45:26.500Z,1.50
2023-03-07T06:48:05.077Z,1.70
2023-03-07T06:50:42.075Z,1.80
2023-03-07T06:53:17.136Z,2.00
2023-03-07T06:55:52.896Z,2.30
2023-03-07T06:58:28.620Z,2.60
2023-03-07T07:01:06.701Z,2.80
2023-03-07T07:03:49.220Z,3.10
2023-03-07T07:06:24.438Z,3.30
2023-03-07T07:09:00.591Z,3.60
2023-03-07T07:11:41.069Z,3.80
2023-03-07T07:14:20.105Z,4.00
2023-03-07T07:16:57.043Z,4.20
2023-03-07T07:19:37.692Z,4.40
2023-03-07T07:22:15.381Z,4.70
2023-03-07T07:24:52.009Z,4.90
2023-03-07T07:27:28.690Z,5.20
2023-03-07T07:30:12.183Z,5.30
2023-03-07T07:32:48.479Z,5.50
2023-03-07T07:35:25.836Z,5.80
2023-03-07T07:38:04.287Z,6.00
2023-03-07T07:40:39.584Z,6.20
2023-03-07T07:43:17.504Z,6.40
2023-03-07T07:46:04.318Z,6.50
2023-03-07T07:48:45.497Z,6.60
2023-03-07T07:51:26.911Z,6.80
2023-03-07T07:54:02.646Z,7.00
2023-03-07T07:56:43.500Z,7.00
2023-03-07T07:59:17.682Z,7.10
2023-03-07T08:01:57.148Z,7.20
2023-03-07T08:04:35.771Z,7.40
2023-03-07T08:07:16.531Z,7.60
2023-03-07T08:09:55.526Z,7.70
2023-03-07T08:12:34.169Z,7.90
2023-03-07T08:15:12.680Z,7.90
2023-03-07T08:17:51.793Z,8.00
2023-03-07T08:20:32.573Z,8.10
2023-03-07T08:23:13.666Z,8.40
2023-03-07T08:25:50.500Z,8.60
2023-03-07T08:28:27.933Z,8.60
2023-03-07T08:31:11.370Z,8.80
2023-03-07T08:33:48.526Z,9.00
2023-03-07T08:36:25.039Z,8.90
2023-03-07T08:39:12.743Z,8.80
2023-03-07T08:41:58.846Z,9.00
2023-03-07T08:44:36.430Z,9.30
2023-03-07T08:47:16.327Z,9.40
2023-03-07T08:50:04.936Z,9.60
2023-03-07T08:52:42.371Z,9.70
2023-03-07T08:55:24.265Z,9.60
2023-03-07T08:58:05.531Z,9.70
2023-03-07T09:00:44.130Z,9.80
2023-03-07T09:03:24.589Z,10.00
2023-03-07T09:05:59.695Z,10.00
2023-03-07T09:08:36.565Z,10.00
2023-03-07T09:11:15.256Z,10.00
2023-03-07T09:13:53.397Z,10.00
2023-03-07T09:16:29.121Z,10.00
2023-03-07T09:19:06.409Z,10.10
2023-03-07T09:21:44.062Z,10.30
2023-03-07T09:24:26.995Z,10.40
2023-03-07T09:27:17.455Z,10.60
2023-03-07T09:29:56.716Z,10.30
2023-03-07T09:32:32.626Z,10.10
2023-03-07T09:35:13.219Z,9.60
2023-03-07T09:37:54.521Z,9.30
2023-03-07T09:40:29.236Z,9.10
2023-03-07T09:43:13.763Z,8.80
2023-03-07T09:46:02.884Z,8.50
2023-03-07T09:48:55.240Z,8.20
2023-03-07T09:51:30.700Z,8.10
2023-03-07T09:54:08.042Z,8.00
2023-03-07T09:56:46.171Z,7.90
2023-03-07T09:59:29.165Z,7.80
2023-03-07T10:02:04.406Z,7.80
2023-03-07T10:04:43.853Z,7.70
2023-03-07T10:07:21.043Z,7.70
2023-03-07T10:09:57.763Z,7.70
2023-03-07T10:12:47.025Z,7.50
2023-03-07T10:15:39.829Z,7.50
2023-03-07T10:18:37.801Z,7.50
2023-03-07T10:21:18.822Z,7.60
2023-03-07T10:23:52.853Z,7.60
2023-03-07T10:26:30.705Z,7.60
2023-03-07T10:29:12.222Z,7.60
2023-03-07T10:31:50.663Z,7.50
2023-03-07T10:34:30.664Z,7.50
2023-03-07T10:37:11.546Z,7.50
2023-03-07T10:39:48.065Z,7.40
2023-03-07T10:42:24.235Z,7.30
2023-03-07T10:45:03.856Z,7.30
2023-03-07T10:47:44.125Z,7.30
2023-03-07T10:50:37.303Z,7.30
2023-03-07T10:53:18.488Z,7.20
2023-03-07T10:55:54.158Z,7.20
2023-03-07T10:58:32.105Z,7.10
2023-03-07T11:01:18.344Z,7.10
2023-03-07T11:04:03.381Z,7.10
2023-03-07T11:06:41.455Z,7.10
2023-03-07T11:09:16.161Z,7.20
2023-03-07T11:11:55.915Z,7.30
2023-03-07T11:14:31.665Z,7.30
2023-03-07T11:17:18.457Z,7.30
2023-03-07T11:20:00.250Z,7.20
2023-03-07T11:22:36.864Z,7.10
2023-03-07T11:25:19.314Z,7.10
2023-03-07T11:30:32.502Z,7.10
2023-03-07T11:33:12.550Z,7.10
2023-03-07T11:36:00.658Z,7.10
2023-03-07T11:38:42.593Z,7.10
2023-03-07T11:41:20.496Z,7.10
2023-03-07T11:44:08.384Z,7.20
2023-03-07T11:46:51.897Z,7.10
2023-03-07T11:49:46.560Z,7.20
2023-03-07T11:52:31.670Z,7.20
2023-03-07T11:55:14.955Z,7.20
2023-03-07T11:57:56.077Z,7.20
2023-03-07T12:00:36.510Z,7.20
2023-03-07T12:03:25.360Z,7.20
2023-03-07T12:06:25.155Z,7.10
2023-03-07T12:09:17.007Z,7.10
2023-03-07T12:12:12.417Z,7.20
2023-03-07T12:14:47.011Z,7.20
2023-03-07T12:17:28.016Z,7.20
2023-03-07T12:20:02.076Z,7.30
2023-03-07T12:22:41.130Z,7.30
2023-03-07T12:25:25.378Z,7.40
2023-03-07T12:28:06.790Z,7.40
2023-03-07T12:30:53.225Z,7.40
2023-03-07T12:33:31.715Z,7.30
2023-03-07T12:36:08.279Z,7.40
2023-03-07T12:38:48.769Z,7.40
2023-03-07T12:41:42.262Z,7.40
2023-03-07T12:44:19.146Z,7.40
2023-03-07T12:46:57.514Z,7.40
2023-03-07T12:49:49.123Z,7.50
2023-03-07T12:52:23.984Z,7.40
2023-03-07T12:55:02.565Z,7.40
2023-03-07T12:57:44.015Z,7.50
2023-03-07T13:00:22.432Z,7.50
2023-03-07T13:03:04.575Z,7.50
2023-03-07T13:05:40.468Z,7.50
2023-03-07T13:08:27.939Z,7.50
2023-03-07T13:11:02.781Z,7.50
2023-03-07T13:14:02.890Z,7.50
2023-03-07T13:16:43.018Z,7.50
2023-03-07T13:19:35.322Z,7.50
2023-03-07T13:22:10.148Z,7.50
2023-03-07T13:24:45.172Z,7.50
2023-03-07T13:27:20.590Z,7.60
2023-03-07T13:30:25.187Z,7.60
2023-03-07T13:33:00.920Z,7.60
2023-03-07T13:35:59.850Z,7.50
2023-03-07T13:38:39.656Z,7.50
2023-03-07T13:41:15.718Z,7.50
2023-03-07T13:44:01.143Z,7.50
2023-03-07T13:46:52.808Z,7.40
2023-03-07T13:49:44.777Z,7.50
2023-03-07T13:52:44.572Z,7.50
2023-03-07T13:55:42.352Z,7.50
2023-03-07T13:58:22.923Z,7.50
2023-03-07T14:01:01.224Z,7.60
2023-03-07T14:03:40.615Z,7.50
2023-03-07T14:06:19.905Z,7.60
2023-03-07T14:08:55.208Z,7.60
2023-03-07T14:11:34.896Z,7.60
2023-03-07T14:14:33.931Z,7.60
2023-03-07T14:17:36.875Z,7.60
2023-03-07T14:20:21.522Z,7.60
2023-03-07T14:23:07.398Z,7.60
2023-03-07T14:25:44.896Z,7.60
2023-03-07T14:28:53.363Z,7.70
2023-03-07T14:31:32.072Z,7.60
2023-03-07T14:34:19.641Z,7.60
2023-03-07T14:37:00.361Z,7.60
2023-03-07T14:39:40.857Z,7.60
2023-03-07T14:42:21.037Z,7.70
2023-03-07T14:45:02.130Z,7.60
2023-03-07T14:47:36.785Z,7.70
2023-03-07T14:50:18.976Z,7.60
2023-03-07T14:53:02.624Z,7.60
2023-03-07T14:55:40.047Z,7.50
2023-03-07T14:58:19.739Z,7.50
2023-03-07T15:01:02.966Z,7.40
2023-03-07T15:03:45.050Z,7.40
2023-03-07T15:06:22.902Z,7.40
2023-03-07T15:09:08.674Z,7.30
2023-03-07T15:11:44.478Z,7.30
2023-03-07T15:14:25.625Z,7.30
2023-03-07T15:17:02.187Z,7.20
2023-03-07T15:19:41.830Z,7.20
2023-03-07T15:22:23.263Z,7.20
2023-03-07T15:25:02.928Z,7.20
2023-03-07T15:27:36.971Z,7.20
2023-03-07T15:30:26.308Z,7.20
2023-03-07T15:33:37.021Z,7.20
2023-03-07T15:36:24.120Z,7.10
2023-03-07T15:39:17.056Z,7.10
2023-03-07T15:42:06.736Z,7.10
2023-03-07T15:44:42.940Z,7.10
2023-03-07T15:47:20.477Z,7.00
2023-03-07T15:49:57.763Z,7.00
2023-03-07T15:52:34.049Z,7.00
2023-03-07T15:55:09.813Z,7.00
2023-03-07T15:57:54.092Z,7.00
2023-03-07T16:00:35.831Z,7.00
2023-03-07T16:03:29.211Z,6.90
2023-03-07T16:06:07.875Z,6.90
2023-03-07T16:08:43.803Z,6.90
2023-03-07T16:11:19.438Z,6.90
2023-03-07T16:14:01.740Z,6.90
2023-03-07T16:16:38.014Z,7.00
2023-03-07T16:19:17.005Z,6.90
2023-03-07T16:21:57.630Z,6.90
2023-03-07T16:24:33.958Z,6.90
2023-03-07T16:27:09.897Z,6.90
2023-03-07T16:29:50.536Z,6.90
2023-03-07T16:32:27.981Z,6.90
2023-03-07T16:35:03.423Z,6.80
2023-03-07T16:37:43.614Z,6.80
2023-03-07T16:40:18.137Z,6.80
2023-03-07T16:42:55.332Z,6.80
2023-03-07T16:45:33.989Z,6.80
2023-03-07T16:48:11.982Z,6.70
2023-03-07T16:50:52.951Z,6.70
2023-03-07T16:53:27.044Z,6.70
2023-03-07T16:56:02.753Z,6.70
2023-03-07T16:58:38.015Z,6.60
2023-03-07T17:01:20.428Z,6.60
2023-03-07T17:03:58.745Z,6.60
2023-03-07T17:06:39.397Z,6.60
2023-03-07T17:09:15.553Z,6.60
2023-03-07T17:11:52.605Z,6.60
2023-03-07T17:14:29.155Z,6.60
2023-03-07T17:17:07.033Z,6.60
2023-03-07T17:19:42.647Z,6.50
2023-03-07T17:22:20.249Z,6.50
2023-03-07T17:24:56.201Z,6.50
2023-03-07T17:27:37.403Z,6.40
2023-03-07T17:30:19.503Z,6.40
2023-03-07T17:33:02.916Z,6.40
2023-03-07T17:35:43.237Z,6.40
2023-03-07T17:38:20.476Z,6.40
2023-03-07T17:40:58.820Z,6.40
2023-03-07T17:43:34.175Z,6.40
2023-03-07T17:46:14.474Z,6.40
2023-03-07T17:48:53.840Z,6.30
2023-03-07T17:51:33.089Z,6.30
2023-03-07T17:54:08.481Z,6.30
2023-03-07T17:56:45.797Z,6.30
2023-03-07T17:59:21.508Z,6.30
2023-03-07T18:01:58.934Z,6.30
2023-03-07T18:04:38.591Z,6.20
2023-03-07T18:07:14.549Z,6.20
2023-03-07T18:10:06.861Z,6.20
2023-03-07T18:12:43.813Z,6.20
2023-03-07T18:15:21.978Z,6.20
2023-03-07T18:18:00.136Z,6.20
2023-03-07T18:20:41.788Z,6.20
2023-03-07T18:23:16.052Z,6.20
2023-03-07T18:25:52.452Z,6.20
2023-03-07T18:28:36.524Z,6.10
2023-03-07T18:31:15.581Z,6.10
2023-03-07T18:33:54.862Z,6.10
2023-03-07T18:36:35.420Z,6.10
2023-03-07T18:39:18.418Z,6.10
2023-03-07T18:41:54.784Z,6.10
2023-03-07T18:44:31.732Z,6.10
2023-03-07T18:47:08.592Z,6.10
2023-03-07T18:49:48.954Z,6.10
2023-03-07T18:52:30.323Z,6.10
2023-03-07T18:55:07.634Z,6.10
2023-03-07T18:57:49.679Z,6.20
2023-03-07T19:00:32.985Z,6.20
2023-03-07T19:03:11.755Z,6.20
2023-03-07T19:05:50.591Z,6.20
2023-03-07T19:08:30.388Z,6.20
2023-03-07T19:11:07.861Z,6.10
2023-03-07T19:13:44.240Z,6.10
2023-03-07T19:16:23.059Z,6.10
2023-03-07T19:19:05.942Z,6.10
2023-03-07T19:21:44.584Z,6.10
2023-03-07T19:24:21.244Z,6.10
2023-03-07T19:27:05.582Z,6.00
2023-03-07T19:29:47.166Z,6.10
2023-03-07T19:32:29.043Z,6.10
2023-03-07T19:35:05.301Z,6.10
2023-03-07T19:37:43.000Z,6.10
2023-03-07T19:40:14.112Z,6.00
2023-03-07T19:42:54.935Z,6.00
2023-03-07T19:45:31.699Z,6.10
2023-03-07T19:48:08.493Z,6.00
2023-03-07T19:50:46.606Z,6.00
2023-03-07T19:53:23.167Z,6.00
2023-03-07T19:56:02.407Z,6.00
2023-03-07T19:58:43.558Z,6.00
2023-03-07T20:01:23.364Z,6.00
2023-03-07T20:04:00.767Z,6.00
2023-03-07T20:06:36.298Z,6.00
2023-03-07T20:09:14.318Z,6.00
2023-03-07T20:11:53.357Z,6.00
2023-03-07T20:14:47.486Z,5.90
2023-03-07T20:17:27.254Z,6.00
2023-03-07T20:20:09.403Z,5.90
2023-03-07T20:22:46.783Z,6.00
2023-03-07T20:25:25.216Z,6.00
2023-03-07T20:28:04.419Z,6.00
2023-03-07T20:30:42.040Z,5.90
2023-03-07T20:33:29.261Z,5.90
2023-03-07T20:36:07.574Z,6.00
2023-03-07T20:38:45.608Z,5.90
2023-03-07T20:41:24.316Z,5.90
2023-03-07T20:44:01.825Z,5.90
2023-03-07T20:46:40.303Z,5.90
2023-03-07T20:49:24.969Z,5.90
2023-03-07T20:52:08.971Z,5.90
2023-03-07T20:54:50.713Z,5.90
2023-03-07T20:57:28.244Z,5.80
2023-03-07T21:00:06.087Z,5.80
2023-03-07T21:02:48.358Z,5.70
2023-03-07T21:05:29.873Z,5.50
2023-03-07T21:08:11.759Z,5.40
2023-03-07T21:10:51.234Z,5.20
2023-03-07T21:13:33.823Z,4.90
2023-03-07T21:16:13.960Z,4.90
2023-03-07T21:19:01.917Z,4.60
2023-03-07T21:21:42.922Z,4.50
2023-03-07T21:24:20.982Z,4.40
2023-03-07T21:26:58.751Z,4.30
2023-03-07T21:29:37.110Z,4.20
2023-03-07T21:32:12.861Z,4.20
2023-03-07T21:34:49.203Z,4.10
2023-03-07T21:37:32.694Z,4.10
2023-03-07T21:40:04.670Z,4.10
2023-03-07T21:42:43.647Z,4.00
2023-03-07T21:45:25.449Z,4.00
2023-03-07T21:48:01.968Z,4.00
2023-03-07T21:50:40.979Z,4.00
2023-03-07T21:53:19.251Z,3.90
2023-03-07T21:55:54.781Z,3.90
2023-03-07T21:58:34.107Z,3.90
2023-03-07T22:01:14.323Z,3.90
2023-03-07T22:03:50.094Z,3.90
2023-03-07T22:06:27.679Z,3.80
2023-03-07T22:09:06.519Z,3.80
2023-03-07T22:11:41.873Z,3.80
2023-03-07T22:14:18.168Z,3.80
2023-03-07T22:16:55.379Z,3.80
2023-03-07T22:19:34.597Z,3.90
2023-03-07T22:22:11.140Z,3.80
2023-03-07T22:24:52.435Z,3.90
2023-03-07T22:27:29.389Z,3.90
2023-03-07T22:30:04.661Z,3.80
2023-03-07T22:32:44.051Z,3.80
2023-03-07T22:35:17.585Z,3.80
2023-03-07T22:37:54.703Z,3.80
2023-03-07T22:40:34.287Z,3.80
2023-03-07T22:43:11.842Z,3.70
2023-03-07T22:45:53.256Z,3.70
2023-03-07T22:48:30.795Z,3.60
2023-03-07T22:51:06.192Z,3.60
2023-03-07T22:53:42.221Z,3.50
2023-03-07T22:56:22.969Z,3.50
2023-03-07T22:59:01.236Z,3.40
2023-03-07T23:01:39.534Z,3.40
2023-03-07T23:04:16.739Z,3.30
2023-03-07T23:06:55.287Z,3.30
2023-03-07T23:09:31.116Z,3.20
2023-03-07T23:12:12.443Z,3.20
2023-03-07T23:14:52.750Z,3.10
2023-03-07T23:17:28.030Z,3.10
2023-03-07T23:20:05.726Z,3.00
2023-03-07T23:22:43.210Z,3.00
2023-03-07T23:25:18.661Z,3.00
2023-03-07T23:27:59.377Z,3.00
2023-03-07T23:30:41.923Z,3.00
2023-03-07T23:33:19.073Z,2.90
2023-03-07T23:35:54.684Z,2.90
2023-03-07T23:38:32.435Z,2.90
2023-03-07T23:41:06.776Z,2.90
2023-03-07T23:43:47.160Z,2.80
2023-03-07T23:46:29.384Z,2.80
2023-03-07T23:49:07.933Z,2.70
2023-03-07T23:51:44.995Z,2.70
2023-03-07T23:54:21.608Z,2.60
2023-03-07T23:56:58.687Z,2.60
2023-03-07T23:59:38.835Z,2.60
